createdAt,value
2023-04-16T00:00:00.098Z,0.56
2023-04-16T00:01:00.100Z,0.57
2023-04-16T00:02:00.218Z,0.56
2023-04-16T00:03:00.349Z,0.55
2023-04-16T00:04:00.548Z,0.57
2023-04-16T00:05:00.350Z,0.56
2023-04-16T00:06:00.327Z,0.56
2023-04-16T00:07:00.348Z,0.57
2023-04-16T00:08:00.386Z,0.56
2023-04-16T00:09:00.437Z,0.56
2023-04-16T00:10:00.476Z,0.55
2023-04-16T00:11:00.527Z,0.57
2023-04-16T00:12:00.565Z,0.56
2023-04-16T00:13:00.627Z,0.56
2023-04-16T00:14:00.678Z,0.55
2023-04-16T00:15:00.846Z,0.56
2023-04-16T00:16:00.776Z,0.56
2023-04-16T00:17:00.876Z,0.57
2023-04-16T00:18:00.922Z,0.56
2023-04-16T00:19:00.942Z,0.57
2023-04-16T00:20:00.963Z,0.56
2023-04-16T00:21:01.031Z,0.57
2023-04-16T00:22:01.051Z,0.55
2023-04-16T00:23:01.095Z,0.55
2023-04-16T00:24:01.143Z,0.55
2023-04-16T00:25:01.209Z,0.56
2023-04-16T00:26:01.259Z,0.56
2023-04-16T00:27:01.368Z,0.57
2023-04-16T00:28:01.364Z,0.55
2023-04-16T00:29:01.411Z,0.55
2023-04-16T00:30:01.456Z,0.56
2023-04-16T00:31:01.586Z,0.56
2023-04-16T00:32:01.551Z,0.56
2023-04-16T00:33:01.681Z,0.56
2023-04-16T00:34:01.643Z,0.57
2023-04-16T00:35:01.685Z,0.55
2023-04-16T00:36:01.771Z,0.56
2023-04-16T00:37:01.822Z,0.56
2023-04-16T00:38:01.852Z,0.56
2023-04-16T00:39:01.969Z,0.55
2023-04-16T00:40:01.948Z,0.57
2023-04-16T00:41:02.019Z,0.56
2023-04-16T00:42:02.057Z,0.56
2023-04-16T00:43:02.099Z,0.56
2023-04-16T00:44:02.159Z,0.57
2023-04-16T00:45:02.211Z,0.57
2023-04-16T00:46:03.219Z,0.56
2023-04-16T00:47:02.289Z,0.56
2023-04-16T00:48:02.412Z,0.58
2023-04-16T00:49:02.391Z,0.57
2023-04-16T00:50:02.507Z,0.56
2023-04-16T00:51:02.477Z,0.57
2023-04-16T00:52:02.600Z,0.56
2023-04-16T00:53:02.670Z,0.56
2023-04-16T00:54:02.693Z,0.56
2023-04-16T00:55:02.700Z,0.55
2023-04-16T00:56:02.683Z,0.55
2023-04-16T00:57:02.730Z,0.55
2023-04-16T00:58:02.802Z,0.55
2023-04-16T00:59:02.861Z,0.56
2023-04-16T01:00:02.918Z,0.57
2023-04-16T01:01:02.970Z,0.56
2023-04-16T01:02:03.080Z,0.56
2023-04-16T01:03:03.222Z,0.56
2023-04-16T01:04:03.109Z,0.55
2023-04-16T01:05:03.139Z,0.56
2023-04-16T01:06:03.150Z,0.56
2023-04-16T01:07:03.177Z,0.56
2023-04-16T01:08:03.246Z,0.57
2023-04-16T01:09:03.283Z,0.55
2023-04-16T01:10:03.338Z,0.56
2023-04-16T01:11:03.375Z,0.56
2023-04-16T01:12:03.404Z,0.56
2023-04-16T01:13:03.462Z,0.56
2023-04-16T01:14:03.503Z,0.55
2023-04-16T01:15:04.228Z,0.56
2023-04-16T01:16:03.647Z,0.56
2023-04-16T01:17:03.642Z,0.55
2023-04-16T01:18:03.771Z,0.55
2023-04-16T01:19:03.715Z,0.56
2023-04-16T01:20:03.778Z,0.56
2023-04-16T01:21:03.791Z,0.55
2023-04-16T01:22:03.844Z,0.56
2023-04-16T01:23:03.898Z,0.57
2023-04-16T01:24:03.930Z,0.56
2023-04-16T01:25:03.986Z,0.56
2023-04-16T01:26:04.042Z,0.55
2023-04-16T01:27:04.059Z,0.56
2023-04-16T01:28:04.115Z,0.56
2023-04-16T01:29:04.172Z,0.57
2023-04-16T01:30:04.207Z,0.56
2023-04-16T01:31:04.287Z,0.55
2023-04-16T01:32:04.290Z,0.55
2023-04-16T01:33:04.318Z,0.56
2023-04-16T01:34:04.333Z,0.55
2023-04-16T01:35:04.373Z,0.56
2023-04-16T01:36:04.401Z,0.57
2023-04-16T01:37:04.462Z,0.56
2023-04-16T01:38:04.497Z,0.56
2023-04-16T01:39:04.552Z,0.55
2023-04-16T01:40:04.694Z,0.56
2023-04-16T01:41:04.667Z,0.55
2023-04-16T01:42:04.722Z,0.55
2023-04-16T01:43:04.777Z,0.55
2023-04-16T01:44:04.928Z,0.56
2023-04-16T01:45:04.866Z,0.57
2023-04-16T01:46:04.918Z,0.56
2023-04-16T01:47:05.012Z,0.56
2023-04-16T01:48:05.045Z,0.57
2023-04-16T01:49:05.073Z,0.56
2023-04-16T01:50:05.110Z,0.56
2023-04-16T01:51:05.143Z,0.56
2023-04-16T01:52:05.153Z,0.56
2023-04-16T01:53:05.275Z,0.56
2023-04-16T01:54:05.233Z,0.56
2023-04-16T01:55:05.290Z,0.56
2023-04-16T01:56:05.319Z,0.55
2023-04-16T01:57:05.401Z,0.55
2023-04-16T01:58:05.419Z,0.56
2023-04-16T01:59:05.566Z,0.56
2023-04-16T02:00:05.536Z,0.56
2023-04-16T02:01:05.595Z,0.57
2023-04-16T02:02:05.683Z,0.57
2023-04-16T02:03:05.799Z,0.55
2023-04-16T02:04:05.698Z,0.56
2023-04-16T02:05:05.696Z,0.56
2023-04-16T02:06:05.713Z,0.56
2023-04-16T02:07:05.782Z,0.56
2023-04-16T02:08:05.807Z,0.56
2023-04-16T02:09:05.843Z,0.56
2023-04-16T02:10:05.850Z,0.56
2023-04-16T02:11:05.908Z,0.55
2023-04-16T02:12:05.884Z,0.56
2023-04-16T02:13:05.917Z,0.56
2023-04-16T02:14:05.911Z,0.55
2023-04-16T02:15:06.003Z,0.56
2023-04-16T02:16:06.046Z,0.56
2023-04-16T02:17:06.056Z,0.56
2023-04-16T02:18:06.132Z,0.55
2023-04-16T02:19:06.169Z,0.55
2023-04-16T02:20:06.200Z,0.55
2023-04-16T02:21:06.193Z,0.55
2023-04-16T02:22:06.221Z,0.56
2023-04-16T02:23:06.265Z,0.55
2023-04-16T02:24:06.253Z,0.54
2023-04-16T02:25:06.295Z,0.55
2023-04-16T02:26:06.334Z,0.57
2023-04-16T02:27:06.359Z,0.55
2023-04-16T02:28:06.371Z,0.55
2023-04-16T02:29:06.419Z,0.55
2023-04-16T02:30:06.413Z,0.55
2023-04-16T02:31:06.446Z,0.56
2023-04-16T02:32:06.521Z,0.56
2023-04-16T02:33:06.540Z,0.56
2023-04-16T02:34:06.496Z,0.55
2023-04-16T02:35:06.539Z,0.55
2023-04-16T02:36:06.519Z,0.55
2023-04-16T02:37:06.530Z,0.54
2023-04-16T02:38:06.536Z,0.55
2023-04-16T02:39:06.606Z,0.56
2023-04-16T02:40:06.547Z,0.56
2023-04-16T02:41:06.565Z,0.54
2023-04-16T02:42:06.591Z,0.55
2023-04-16T02:43:06.641Z,0.55
2023-04-16T02:44:06.681Z,0.56
2023-04-16T02:45:06.738Z,0.55
2023-04-16T02:46:06.823Z,0.54
2023-04-16T02:47:06.833Z,0.54
2023-04-16T02:48:06.884Z,0.55
2023-04-16T02:49:07.013Z,0.55
2023-04-16T02:50:06.943Z,0.56
2023-04-16T02:51:07.009Z,0.56
2023-04-16T02:52:07.024Z,0.56
2023-04-16T02:53:07.079Z,0.56
2023-04-16T02:54:07.119Z,0.56
2023-04-16T02:55:07.170Z,0.56
2023-04-16T02:56:07.222Z,0.55
2023-04-16T02:57:07.289Z,0.54
2023-04-16T02:58:07.334Z,0.56
2023-04-16T02:59:07.498Z,0.56
2023-04-16T03:00:07.420Z,0.56
2023-04-16T03:01:07.487Z,0.57
2023-04-16T03:02:07.694Z,0.56
2023-04-16T03:03:07.643Z,0.55
2023-04-16T03:04:07.737Z,0.56
2023-04-16T03:05:07.670Z,0.56
2023-04-16T03:06:07.720Z,0.56
2023-04-16T03:07:07.755Z,0.55
2023-04-16T03:08:07.838Z,0.56
2023-04-16T03:09:08.153Z,0.55
2023-04-16T03:10:07.890Z,0.55
2023-04-16T03:11:07.946Z,0.56
2023-04-16T03:12:07.999Z,0.54
2023-04-16T03:13:08.049Z,0.56
2023-04-16T03:14:08.092Z,0.55
2023-04-16T03:15:08.149Z,0.55
2023-04-16T03:16:08.281Z,0.55
2023-04-16T03:17:08.232Z,0.55
2023-04-16T03:18:08.290Z,0.55
2023-04-16T03:19:08.595Z,0.55
2023-04-16T03:20:08.313Z,0.55
2023-04-16T03:21:08.348Z,0.55
2023-04-16T03:22:08.399Z,0.55
2023-04-16T03:23:08.430Z,0.55
2023-04-16T03:24:08.446Z,0.56
2023-04-16T03:25:08.500Z,0.55
2023-04-16T03:26:08.541Z,0.54
2023-04-16T03:27:08.564Z,0.56
2023-04-16T03:28:08.624Z,0.55
2023-04-16T03:29:08.899Z,0.54
2023-04-16T03:30:08.736Z,0.55
2023-04-16T03:31:08.856Z,0.55
2023-04-16T03:32:08.842Z,0.55
2023-04-16T03:33:08.959Z,0.55
2023-04-16T03:34:08.937Z,0.54
2023-04-16T03:35:09.037Z,0.55
2023-04-16T03:36:09.014Z,0.54
2023-04-16T03:37:09.056Z,0.55
2023-04-16T03:38:09.055Z,0.56
2023-04-16T03:39:09.209Z,0.55
2023-04-16T03:40:09.116Z,0.56
2023-04-16T03:41:09.165Z,0.56
2023-04-16T03:42:09.196Z,0.54
2023-04-16T03:43:09.249Z,0.55
2023-04-16T03:44:09.286Z,0.55
2023-04-16T03:45:09.345Z,0.55
2023-04-16T03:46:09.416Z,0.56
2023-04-16T03:47:09.441Z,0.55
2023-04-16T03:48:09.499Z,0.55
2023-04-16T03:49:09.757Z,0.55
2023-04-16T03:50:09.594Z,0.55
2023-04-16T03:51:09.586Z,0.54
2023-04-16T03:52:09.604Z,0.55
2023-04-16T03:53:09.638Z,0.55
2023-04-16T03:54:09.678Z,0.54
2023-04-16T03:55:09.708Z,0.56
2023-04-16T03:56:09.741Z,0.55
2023-04-16T03:57:09.751Z,0.55
2023-04-16T03:58:09.780Z,0.56
2023-04-16T03:59:09.983Z,0.54
2023-04-16T04:00:09.747Z,0.55
2023-04-16T04:01:09.718Z,0.55
2023-04-16T04:02:09.885Z,0.54
2023-04-16T04:03:09.969Z,0.55
2023-04-16T04:04:09.954Z,0.55
2023-04-16T04:05:09.868Z,0.55
2023-04-16T04:06:09.832Z,0.55
2023-04-16T04:07:09.874Z,0.55
2023-04-16T04:08:09.905Z,0.55
2023-04-16T04:09:10.092Z,0.56
2023-04-16T04:10:09.896Z,0.54
2023-04-16T04:11:09.888Z,0.55
2023-04-16T04:12:09.908Z,0.55
2023-04-16T04:13:09.881Z,0.54
2023-04-16T04:14:09.865Z,0.55
2023-04-16T04:15:09.848Z,0.55
2023-04-16T04:16:09.907Z,0.55
2023-04-16T04:17:09.836Z,0.55
2023-04-16T04:18:09.845Z,0.54
2023-04-16T04:19:10.009Z,0.55
2023-04-16T04:20:09.814Z,0.55
2023-04-16T04:21:09.788Z,0.55
2023-04-16T04:22:09.778Z,0.55
2023-04-16T04:23:09.763Z,0.54
2023-04-16T04:24:09.756Z,0.54
2023-04-16T04:25:09.753Z,0.55
2023-04-16T04:26:09.782Z,0.54
2023-04-16T04:27:09.742Z,0.54
2023-04-16T04:28:09.747Z,0.55
2023-04-16T04:29:09.976Z,0.55
2023-04-16T04:30:09.724Z,0.54
2023-04-16T04:31:09.711Z,0.54
2023-04-16T04:32:09.706Z,0.54
2023-04-16T04:33:09.700Z,0.55
2023-04-16T04:34:09.736Z,0.55
2023-04-16T04:35:09.740Z,0.56
2023-04-16T04:36:09.740Z,0.54
2023-04-16T04:37:09.769Z,0.55
2023-04-16T04:38:09.804Z,0.54
2023-04-16T04:39:10.082Z,0.53
2023-04-16T04:40:09.802Z,0.54
2023-04-16T04:41:09.813Z,0.55
2023-04-16T04:42:09.763Z,0.55
2023-04-16T04:43:09.748Z,0.55
2023-04-16T04:44:09.745Z,0.55
2023-04-16T04:45:09.740Z,0.55
2023-04-16T04:46:09.815Z,0.55
2023-04-16T04:47:09.785Z,0.56
2023-04-16T04:48:09.783Z,0.55
2023-04-16T04:49:10.072Z,0.54
2023-04-16T04:50:09.837Z,0.54
2023-04-16T04:51:09.821Z,0.53
2023-04-16T04:52:09.808Z,0.54
2023-04-16T04:53:09.809Z,0.54
2023-04-16T04:54:09.799Z,0.55
2023-04-16T04:55:09.800Z,0.55
2023-04-16T04:56:12.732Z,0.55
2023-04-16T04:57:09.776Z,0.56
2023-04-16T04:58:09.759Z,0.55
2023-04-16T04:59:09.831Z,0.54
2023-04-16T05:00:09.701Z,0.55
2023-04-16T05:01:09.773Z,0.54
2023-04-16T05:02:09.682Z,0.54
2023-04-16T05:03:09.737Z,0.54
2023-04-16T05:04:09.711Z,0.54
2023-04-16T05:05:09.626Z,0.55
2023-04-16T05:06:09.575Z,0.55
2023-04-16T05:07:09.545Z,0.55
2023-04-16T05:08:09.529Z,0.54
2023-04-16T05:09:09.617Z,0.55
2023-04-16T05:10:09.494Z,0.55
2023-04-16T05:11:09.507Z,0.55
2023-04-16T05:12:09.459Z,0.55
2023-04-16T05:13:09.427Z,0.55
2023-04-16T05:14:09.419Z,0.54
2023-04-16T05:15:09.394Z,0.55
2023-04-16T05:16:09.481Z,0.53
2023-04-16T05:17:09.334Z,0.54
2023-04-16T05:18:09.313Z,0.54
2023-04-16T05:19:09.600Z,0.54
2023-04-16T05:20:09.271Z,0.54
2023-04-16T05:21:09.231Z,0.55
2023-04-16T05:22:09.213Z,0.55
2023-04-16T05:23:09.195Z,0.54
2023-04-16T05:24:09.181Z,0.54
2023-04-16T05:25:09.159Z,0.55
2023-04-16T05:26:09.116Z,0.55
2023-04-16T05:27:09.115Z,0.54
2023-04-16T05:28:09.076Z,0.55
2023-04-16T05:29:09.234Z,0.54
2023-04-16T05:30:09.038Z,0.54
2023-04-16T05:31:09.058Z,0.54
2023-04-16T05:32:08.976Z,0.55
2023-04-16T05:33:08.953Z,0.55
2023-04-16T05:34:08.942Z,0.55
2023-04-16T05:35:08.907Z,0.54
2023-04-16T05:36:08.867Z,0.55
2023-04-16T05:37:08.848Z,0.54
2023-04-16T05:38:08.823Z,0.55
2023-04-16T05:39:09.039Z,0.55
2023-04-16T05:40:08.773Z,0.54
2023-04-16T05:41:08.747Z,0.54
2023-04-16T05:42:08.719Z,0.54
2023-04-16T05:43:08.688Z,0.54
2023-04-16T05:44:08.690Z,0.55
2023-04-16T05:45:08.651Z,0.54
2023-04-16T05:46:08.667Z,0.54
2023-04-16T05:47:08.600Z,0.55
2023-04-16T05:48:08.582Z,0.55
2023-04-16T05:49:08.818Z,0.55
2023-04-16T05:50:08.553Z,0.54
2023-04-16T05:51:08.542Z,0.54
2023-04-16T05:52:08.496Z,0.55
2023-04-16T05:53:08.473Z,0.54
2023-04-16T05:54:08.448Z,0.53
2023-04-16T05:55:08.437Z,0.54
2023-04-16T05:56:08.402Z,0.54
2023-04-16T05:57:08.392Z,0.54
2023-04-16T05:58:08.390Z,0.55
2023-04-16T05:59:08.726Z,0.54
2023-04-16T06:00:08.375Z,0.52
2023-04-16T06:01:08.302Z,0.54
2023-04-16T06:02:08.308Z,0.54
2023-04-16T06:03:08.470Z,0.53
2023-04-16T06:04:08.364Z,0.53
2023-04-16T06:05:08.239Z,0.54
2023-04-16T06:06:08.177Z,0.54
2023-04-16T06:07:08.150Z,0.54
2023-04-16T06:08:08.142Z,0.54
2023-04-16T06:09:08.428Z,0.53
2023-04-16T06:10:08.087Z,0.54
2023-04-16T06:11:08.062Z,0.54
2023-04-16T06:12:08.043Z,0.54
2023-04-16T06:13:08.019Z,0.54
2023-04-16T06:14:08.006Z,0.54
2023-04-16T06:15:07.974Z,0.55
2023-04-16T06:16:07.970Z,0.54
2023-04-16T06:17:07.912Z,0.54
2023-04-16T06:18:07.903Z,0.54
2023-04-16T06:19:07.980Z,0.54
2023-04-16T06:20:07.852Z,0.53
2023-04-16T06:21:07.819Z,0.53
2023-04-16T06:22:07.840Z,0.54
2023-04-16T06:23:07.785Z,0.54
2023-04-16T06:24:07.770Z,0.53
2023-04-16T06:25:07.748Z,0.54
2023-04-16T06:26:07.733Z,0.54
2023-04-16T06:27:07.707Z,0.53
2023-04-16T06:28:07.692Z,0.54
2023-04-16T06:29:07.871Z,0.54
2023-04-16T06:30:07.640Z,0.53
2023-04-16T06:31:07.694Z,0.53
2023-04-16T06:32:07.589Z,0.53
2023-04-16T06:33:07.549Z,0.53
2023-04-16T06:34:07.528Z,0.53
2023-04-16T06:35:07.508Z,0.53
2023-04-16T06:36:07.484Z,0.54
2023-04-16T06:37:10.362Z,0.52
2023-04-16T06:38:07.429Z,0.54
2023-04-16T06:39:07.578Z,0.54
2023-04-16T06:40:07.387Z,0.54
2023-04-16T06:41:07.353Z,0.54
2023-04-16T06:42:07.327Z,0.53
2023-04-16T06:43:07.308Z,0.53
2023-04-16T06:44:07.296Z,0.54
2023-04-16T06:45:07.295Z,0.53
2023-04-16T06:46:07.249Z,0.54
2023-04-16T06:47:07.335Z,0.53
2023-04-16T06:48:07.291Z,0.53
2023-04-16T06:49:07.314Z,0.52
2023-04-16T06:50:07.160Z,0.53
2023-04-16T06:51:07.127Z,0.54
2023-04-16T06:52:07.108Z,0.53
2023-04-16T06:53:07.087Z,0.54
2023-04-16T06:54:07.048Z,0.54
2023-04-16T06:55:07.027Z,0.52
2023-04-16T06:56:07.013Z,0.52
2023-04-16T06:57:07.150Z,0.53
2023-04-16T06:58:06.985Z,0.54
2023-04-16T06:59:07.027Z,0.53
2023-04-16T07:00:06.945Z,0.53
2023-04-16T07:01:06.984Z,0.53
2023-04-16T07:02:06.978Z,0.54
2023-04-16T07:03:07.003Z,0.53
2023-04-16T07:04:06.989Z,0.53
2023-04-16T07:05:06.841Z,0.54
2023-04-16T07:06:06.809Z,0.53
2023-04-16T07:07:06.783Z,0.53
2023-04-16T07:08:06.769Z,0.53
2023-04-16T07:09:06.813Z,0.54
2023-04-16T07:10:06.716Z,0.53
2023-04-16T07:11:06.687Z,0.53
2023-04-16T07:12:06.745Z,0.53
2023-04-16T07:13:06.646Z,0.53
2023-04-16T07:14:06.633Z,0.53
2023-04-16T07:15:06.618Z,0.53
2023-04-16T07:16:06.639Z,0.53
2023-04-16T07:17:06.555Z,0.53
2023-04-16T07:18:06.580Z,0.54
2023-04-16T07:19:06.506Z,0.54
2023-04-16T07:20:06.488Z,0.53
2023-04-16T07:21:06.459Z,0.53
2023-04-16T07:22:06.460Z,0.53
2023-04-16T07:23:06.423Z,0.52
2023-04-16T07:24:06.416Z,0.54
2023-04-16T07:25:06.381Z,0.53
2023-04-16T07:26:06.356Z,0.53
2023-04-16T07:27:06.335Z,0.53
2023-04-16T07:28:06.321Z,0.53
2023-04-16T07:29:06.296Z,0.53
2023-04-16T07:30:06.270Z,0.52
2023-04-16T07:31:06.258Z,0.52
2023-04-16T07:32:06.268Z,0.53
2023-04-16T07:33:06.221Z,0.52
2023-04-16T07:34:06.165Z,0.52
2023-04-16T07:35:06.138Z,0.53
2023-04-16T07:36:06.114Z,0.53
2023-04-16T07:37:06.083Z,0.52
2023-04-16T07:38:06.074Z,0.52
2023-04-16T07:39:06.040Z,0.53
2023-04-16T07:40:06.020Z,0.53
2023-04-16T07:41:06.006Z,0.53
2023-04-16T07:42:05.967Z,0.52
2023-04-16T07:43:05.950Z,0.54
2023-04-16T07:44:05.923Z,0.53
2023-04-16T07:45:05.917Z,0.53
2023-04-16T07:46:05.945Z,0.53
2023-04-16T07:47:06.009Z,0.52
2023-04-16T07:48:05.828Z,0.53
2023-04-16T07:49:05.817Z,0.52
2023-04-16T07:50:05.796Z,0.53
2023-04-16T07:51:05.873Z,0.53
2023-04-16T07:52:05.740Z,0.52
2023-04-16T07:53:05.729Z,0.52
2023-04-16T07:54:05.699Z,0.53
2023-04-16T07:55:05.676Z,0.52
2023-04-16T07:56:05.657Z,0.53
2023-04-16T07:57:05.627Z,0.53
2023-04-16T07:58:05.661Z,0.52
2023-04-16T07:59:21.058Z,0.53
2023-04-16T08:00:06.642Z,0.53
2023-04-16T08:01:05.623Z,0.53
2023-04-16T08:02:05.701Z,0.52
2023-04-16T08:03:05.953Z,0.53
2023-04-16T08:04:05.657Z,0.53
2023-04-16T08:05:05.590Z,0.52
2023-04-16T08:06:05.513Z,0.53
2023-04-16T08:07:05.693Z,0.53
2023-04-16T08:08:05.453Z,0.52
2023-04-16T08:09:05.448Z,0.52
2023-04-16T08:10:05.439Z,0.51
2023-04-16T08:11:05.410Z,0.53
2023-04-16T08:12:05.385Z,0.51
2023-04-16T08:13:05.400Z,0.51
2023-04-16T08:14:05.386Z,0.52
2023-04-16T08:15:05.383Z,0.53
2023-04-16T08:16:05.399Z,0.53
2023-04-16T08:17:05.365Z,0.53
2023-04-16T08:18:05.434Z,0.52
2023-04-16T08:19:05.405Z,0.52
2023-04-16T08:20:05.410Z,0.53
2023-04-16T08:21:05.405Z,0.52
2023-04-16T08:22:05.394Z,0.52
2023-04-16T08:23:05.386Z,0.52
2023-04-16T08:24:05.387Z,0.53
2023-04-16T08:25:05.394Z,0.52
2023-04-16T08:26:05.428Z,0.52
2023-04-16T08:28:06.407Z,0.52
2023-04-16T08:29:05.394Z,0.52
2023-04-16T08:30:05.355Z,0.52
2023-04-16T08:31:05.352Z,0.52
2023-04-16T08:32:05.300Z,0.52
2023-04-16T08:33:05.314Z,0.52
2023-04-16T08:34:05.255Z,0.52
2023-04-16T08:35:05.234Z,0.51
2023-04-16T08:36:05.211Z,0.52
2023-04-16T08:37:05.194Z,0.52
2023-04-16T08:38:05.153Z,0.52
2023-04-16T08:39:05.138Z,0.52
2023-04-16T08:40:05.164Z,0.51
2023-04-16T08:41:05.183Z,0.52
2023-04-16T08:42:05.203Z,0.51
2023-04-16T08:43:05.239Z,0.51
2023-04-16T08:44:05.266Z,0.52
2023-04-16T08:45:05.283Z,0.52
2023-04-16T08:46:05.337Z,0.52
2023-04-16T08:47:05.357Z,0.52
2023-04-16T08:48:05.387Z,0.52
2023-04-16T08:49:05.392Z,0.51
2023-04-16T08:50:05.421Z,0.51
2023-04-16T08:51:05.483Z,0.52
2023-04-16T08:52:05.524Z,0.52
2023-04-16T08:53:05.592Z,0.52
2023-04-16T08:54:05.628Z,0.52
2023-04-16T08:55:05.709Z,0.52
2023-04-16T08:56:05.718Z,0.52
2023-04-16T08:57:05.774Z,0.51
2023-04-16T08:58:05.795Z,0.51
2023-04-16T08:59:05.860Z,0.51
2023-04-16T09:00:05.893Z,0.51
2023-04-16T09:01:05.936Z,0.51
2023-04-16T09:02:06.021Z,0.52
2023-04-16T09:03:06.067Z,0.52
2023-04-16T09:04:06.330Z,0.51
2023-04-16T09:05:06.089Z,0.51
2023-04-16T09:06:06.168Z,0.51
2023-04-16T09:07:06.220Z,0.52
2023-04-16T09:08:06.258Z,0.52
2023-04-16T09:09:06.295Z,0.50
2023-04-16T09:10:06.339Z,0.51
2023-04-16T09:11:06.367Z,0.50
2023-04-16T09:12:06.378Z,0.52
2023-04-16T09:13:06.414Z,0.51
2023-04-16T09:14:06.448Z,0.51
2023-04-16T09:15:06.479Z,0.52
2023-04-16T09:16:06.590Z,0.51
2023-04-16T09:17:06.573Z,0.51
2023-04-16T09:18:06.621Z,0.51
2023-04-16T09:19:06.660Z,0.52
2023-04-16T09:20:06.698Z,0.52
2023-04-16T09:21:06.729Z,0.51
2023-04-16T09:22:06.779Z,0.50
2023-04-16T09:23:06.839Z,0.52
2023-04-16T09:24:06.890Z,0.51
2023-04-16T09:25:06.927Z,0.52
2023-04-16T09:26:06.960Z,0.51
2023-04-16T09:27:06.991Z,0.51
2023-04-16T09:28:07.020Z,0.51
2023-04-16T09:29:07.115Z,0.51
2023-04-16T09:30:07.113Z,0.51
2023-04-16T09:31:07.142Z,0.51
2023-04-16T09:32:07.294Z,0.51
2023-04-16T09:33:07.238Z,0.51
2023-04-16T09:34:07.295Z,0.51
2023-04-16T09:35:07.304Z,0.51
2023-04-16T09:36:07.345Z,0.51
2023-04-16T09:37:07.396Z,0.51
2023-04-16T09:38:07.446Z,0.50
2023-04-16T09:39:07.560Z,0.50
2023-04-16T09:40:07.483Z,0.51
2023-04-16T09:41:07.521Z,0.50
2023-04-16T09:42:07.550Z,0.51
2023-04-16T09:43:07.566Z,0.51
2023-04-16T09:44:07.632Z,0.51
2023-04-16T09:45:07.651Z,0.51
2023-04-16T09:46:08.436Z,0.52
2023-04-16T09:47:07.741Z,0.51
2023-04-16T09:48:07.806Z,0.52
2023-04-16T09:49:08.700Z,0.51
2023-04-16T09:50:07.835Z,0.50
2023-04-16T09:51:07.839Z,0.51
2023-04-16T09:52:07.868Z,0.50
2023-04-16T09:53:07.905Z,0.51
2023-04-16T09:54:07.969Z,0.51
2023-04-16T09:55:08.030Z,0.51
2023-04-16T09:56:08.067Z,0.51
2023-04-16T09:57:08.103Z,0.52
2023-04-16T09:58:08.156Z,0.52
2023-04-16T09:59:08.324Z,0.53
2023-04-16T10:00:08.227Z,0.52
2023-04-16T10:01:08.306Z,0.52
2023-04-16T10:02:15.522Z,0.52
2023-04-16T10:03:09.330Z,0.52
2023-04-16T10:04:08.345Z,0.52
2023-04-16T10:05:08.197Z,0.53
2023-04-16T10:06:08.163Z,0.52
2023-04-16T10:07:08.142Z,0.52
2023-04-16T10:08:08.121Z,0.52
2023-04-16T10:09:08.153Z,0.52
2023-04-16T10:10:08.071Z,0.52
2023-04-16T10:11:08.114Z,0.52
2023-04-16T10:12:08.139Z,0.53
2023-04-16T10:13:08.185Z,0.53
2023-04-16T10:14:08.224Z,0.51
2023-04-16T10:15:08.265Z,0.52
2023-04-16T10:16:08.305Z,0.50
2023-04-16T10:17:08.387Z,0.51
2023-04-16T10:18:08.414Z,0.51
2023-04-16T10:19:08.550Z,0.51
2023-04-16T10:20:08.446Z,0.51
2023-04-16T10:21:08.472Z,0.53
2023-04-16T10:22:08.509Z,0.52
2023-04-16T10:23:08.546Z,0.52
2023-04-16T10:24:08.589Z,0.52
2023-04-16T10:25:08.616Z,0.52
2023-04-16T10:26:08.673Z,0.53
2023-04-16T10:27:08.694Z,0.52
2023-04-16T10:28:08.750Z,0.52
2023-04-16T10:29:09.106Z,0.52
2023-04-16T10:30:08.813Z,0.52
2023-04-16T10:31:08.932Z,0.51
2023-04-16T10:32:08.892Z,0.53
2023-04-16T10:33:08.956Z,0.52
2023-04-16T10:34:08.965Z,0.52
2023-04-16T10:35:08.995Z,0.51
2023-04-16T10:36:09.046Z,0.51
2023-04-16T10:37:09.073Z,0.51
2023-04-16T10:38:09.108Z,0.52
2023-04-16T10:39:09.297Z,0.51
2023-04-16T10:40:09.178Z,0.52
2023-04-16T10:41:09.217Z,0.52
2023-04-16T10:42:09.288Z,0.51
2023-04-16T10:43:09.295Z,0.51
2023-04-16T10:44:09.354Z,0.52
2023-04-16T10:45:09.382Z,0.51
2023-04-16T10:46:09.463Z,0.52
2023-04-16T10:47:09.466Z,0.51
2023-04-16T10:48:09.495Z,0.51
2023-04-16T10:49:09.861Z,0.52
2023-04-16T10:50:09.565Z,0.51
2023-04-16T10:51:09.613Z,0.51
2023-04-16T10:52:09.653Z,0.51
2023-04-16T10:53:09.690Z,0.51
2023-04-16T10:54:09.745Z,0.52
2023-04-16T10:55:09.777Z,0.51
2023-04-16T10:56:09.834Z,0.51
2023-04-16T10:57:09.878Z,0.51
2023-04-16T10:58:09.906Z,0.51
2023-04-16T10:59:10.113Z,0.51
2023-04-16T11:00:09.984Z,0.51
2023-04-16T11:01:10.036Z,0.51
2023-04-16T11:02:10.272Z,0.51
2023-04-16T11:03:10.191Z,0.50
2023-04-16T11:04:10.258Z,0.51
2023-04-16T11:05:10.190Z,0.51
2023-04-16T11:06:10.249Z,0.50
2023-04-16T11:07:10.288Z,0.51
2023-04-16T11:08:10.314Z,0.52
2023-04-16T11:09:10.609Z,0.52
2023-04-16T11:10:10.382Z,0.52
2023-04-16T11:11:10.423Z,0.51
2023-04-16T11:12:10.459Z,0.50
2023-04-16T11:13:10.496Z,0.51
2023-04-16T11:14:10.532Z,0.52
2023-04-16T11:15:10.597Z,0.51
2023-04-16T11:16:10.634Z,0.52
2023-04-16T11:17:10.610Z,0.52
2023-04-16T11:18:10.686Z,0.52
2023-04-16T11:19:10.827Z,0.51
2023-04-16T11:20:19.301Z,0.52
2023-04-16T11:21:11.680Z,0.52
2023-04-16T11:22:10.653Z,0.52
2023-04-16T11:23:10.644Z,0.52
2023-04-16T11:24:10.616Z,0.51
2023-04-16T11:25:10.589Z,0.51
2023-04-16T11:26:10.537Z,0.51
2023-04-16T11:27:10.511Z,0.51
2023-04-16T11:28:10.506Z,0.51
2023-04-16T11:29:10.855Z,0.51
2023-04-16T11:30:10.440Z,0.51
2023-04-16T11:31:10.440Z,0.51
2023-04-16T11:32:10.429Z,0.51
2023-04-16T11:33:10.450Z,0.50
2023-04-16T11:34:10.471Z,0.51
2023-04-16T11:35:10.481Z,0.51
2023-04-16T11:36:11.361Z,0.51
2023-04-16T11:37:10.521Z,0.50
2023-04-16T11:38:10.545Z,0.51
2023-04-16T11:39:10.753Z,0.51
2023-04-16T11:40:10.582Z,0.52
2023-04-16T11:41:10.589Z,0.52
2023-04-16T11:42:10.635Z,0.53
2023-04-16T11:43:10.626Z,0.52
2023-04-16T11:44:10.653Z,0.51
2023-04-16T11:45:10.681Z,0.52
2023-04-16T11:46:26.396Z,0.52
2023-04-16T11:47:11.711Z,0.52
2023-04-16T11:48:11.270Z,0.53
2023-04-16T11:49:10.846Z,0.52
2023-04-16T11:50:10.559Z,0.53
2023-04-16T11:51:10.564Z,0.52
2023-04-16T11:52:10.493Z,0.53
2023-04-16T11:53:10.462Z,0.51
2023-04-16T11:54:12.098Z,0.52
2023-04-16T11:55:10.394Z,0.51
2023-04-16T11:56:10.358Z,0.52
2023-04-16T11:57:10.326Z,0.51
2023-04-16T11:58:10.349Z,0.53
2023-04-16T11:59:10.676Z,0.51
2023-04-16T12:00:10.718Z,0.52
2023-04-16T12:01:10.384Z,0.51
2023-04-16T12:02:10.460Z,0.51
2023-04-16T12:03:10.638Z,0.53
2023-04-16T12:04:10.670Z,0.51
2023-04-16T12:05:10.518Z,0.52
2023-04-16T12:06:10.462Z,0.52
2023-04-16T12:07:10.482Z,0.52
2023-04-16T12:08:10.507Z,0.51
2023-04-16T12:09:10.604Z,0.52
2023-04-16T12:10:10.528Z,0.53
2023-04-16T12:11:10.537Z,0.53
2023-04-16T12:12:10.552Z,0.51
2023-04-16T12:13:10.570Z,0.51
2023-04-16T12:14:10.584Z,0.52
2023-04-16T12:15:10.612Z,0.53
2023-04-16T12:16:10.621Z,0.53
2023-04-16T12:17:10.709Z,0.53
2023-04-16T12:18:10.696Z,0.52
2023-04-16T12:19:10.813Z,0.52
2023-04-16T12:20:10.706Z,0.52
2023-04-16T12:21:10.684Z,0.53
2023-04-16T12:22:10.714Z,0.52
2023-04-16T12:23:10.735Z,0.52
2023-04-16T12:24:10.737Z,0.52
2023-04-16T12:25:10.754Z,0.52
2023-04-16T12:26:11.023Z,0.53
2023-04-16T12:27:10.793Z,0.51
2023-04-16T12:28:10.813Z,0.53
2023-04-16T12:29:10.895Z,0.53
2023-04-16T12:30:10.891Z,0.52
2023-04-16T12:31:10.906Z,0.53
2023-04-16T12:32:10.881Z,0.52
2023-04-16T12:33:10.988Z,0.52
2023-04-16T12:34:10.906Z,0.53
2023-04-16T12:35:10.938Z,0.53
2023-04-16T12:36:10.953Z,0.52
2023-04-16T12:37:10.992Z,0.53
2023-04-16T12:38:10.982Z,0.52
2023-04-16T12:39:11.130Z,0.52
2023-04-16T12:40:11.173Z,0.51
2023-04-16T12:41:11.042Z,0.52
2023-04-16T12:42:11.058Z,0.52
2023-04-16T12:43:11.112Z,0.53
2023-04-16T12:44:11.082Z,0.52
2023-04-16T12:45:11.128Z,0.52
2023-04-16T12:46:11.195Z,0.52
2023-04-16T12:47:11.157Z,0.53
2023-04-16T12:48:11.181Z,0.52
2023-04-16T12:49:11.381Z,0.51
2023-04-16T12:50:11.254Z,0.52
2023-04-16T12:51:11.230Z,0.52
2023-04-16T12:52:11.238Z,0.51
2023-04-16T12:53:11.285Z,0.52
2023-04-16T12:54:11.280Z,0.53
2023-04-16T12:55:11.288Z,0.53
2023-04-16T12:56:11.315Z,0.53
2023-04-16T12:57:11.326Z,0.52
2023-04-16T12:58:12.660Z,0.52
2023-04-16T12:59:11.549Z,0.52
2023-04-16T13:00:11.450Z,0.53
2023-04-16T13:01:11.419Z,0.52
2023-04-16T13:02:11.521Z,0.52
2023-04-16T13:03:11.614Z,0.52
2023-04-16T13:04:11.528Z,0.52
2023-04-16T13:05:11.463Z,0.52
2023-04-16T13:06:11.488Z,0.53
2023-04-16T13:07:11.500Z,0.52
2023-04-16T13:08:11.525Z,0.52
2023-04-16T13:09:11.724Z,0.53
2023-04-16T13:10:11.556Z,0.54
2023-04-16T13:11:11.576Z,0.53
2023-04-16T13:12:11.606Z,0.53
2023-04-16T13:13:11.619Z,0.51
2023-04-16T13:14:11.628Z,0.52
2023-04-16T13:15:11.659Z,0.52
2023-04-16T13:16:11.730Z,0.52
2023-04-16T13:17:11.705Z,0.54
2023-04-16T13:18:11.715Z,0.53
2023-04-16T13:19:11.950Z,0.53